Time;durP1;ratioP1;P1;durP2;ratioP2;P2;SDS_P1;SDS_P2;PMS_P1;PMS_P2;Temp;Humidity;BMP_temperature;BMP_pressure;BME280_temperature;BME280_humidity;BME280_pressure;Samples;Min_cycle;Max_cycle;Signal;HPM_P1;HPM_P2
2023/09/08 00:00:57;;;;;;;8.02;4.70;;;14.40;99.90;;;;;;4194374;28;20082;-67
2023/09/08 00:02:58;;;;;;;9.15;4.78;;;14.30;99.90;;;;;;4191500;28;20044;-65
2023/09/08 00:04:59;;;;;;;6.60;4.10;;;14.20;99.90;;;;;;4193232;28;20415;-67
2023/09/08 00:07:01;;;;;;;6.53;4.50;;;14.30;99.90;;;;;;4193169;28;20530;-66
2023/09/08 00:09:03;;;;;;;8.05;4.07;;;14.20;99.90;;;;;;4194207;28;20473;-65
2023/09/08 00:11:06;;;;;;;6.35;4.18;;;14.20;99.90;;;;;;4192364;28;20040;-66
2023/09/08 00:13:07;;;;;;;6.72;4.68;;;14.10;99.90;;;;;;4193690;28;20102;-65
2023/09/08 00:15:09;;;;;;;7.63;4.80;;;14.10;99.90;;;;;;4192390;28;20098;-65
2023/09/08 00:17:10;;;;;;;6.82;4.05;;;14.10;99.90;;;;;;4194118;28;20082;-67
2023/09/08 00:19:11;;;;;;;6.65;4.40;;;14.10;99.90;;;;;;4192765;28;20024;-65
2023/09/08 00:21:12;;;;;;;8.35;4.78;;;14.10;99.90;;;;;;4193173;28;20036;-65
2023/09/08 00:23:13;;;;;;;7.57;4.72;;;14.10;99.90;;;;;;4194109;28;20028;-66
2023/09/08 00:25:15;;;;;;;7.38;4.25;;;14.00;99.90;;;;;;4192844;28;20097;-62
2023/09/08 00:27:16;;;;;;;8.18;4.25;;;14.00;99.90;;;;;;4194109;28;20121;-67
2023/09/08 00:29:17;;;;;;;5.65;3.80;;;14.00;99.90;;;;;;4192903;28;20078;-67
2023/09/08 00:31:18;;;;;;;6.15;4.53;;;14.00;99.90;;;;;;4194027;28;20613;-62
2023/09/08 00:33:19;;;;;;;5.82;3.80;;;14.00;99.90;;;;;;4192803;28;20086;-67
2023/09/08 00:35:20;;;;;;;4.97;3.88;;;14.00;99.90;;;;;;4194265;28;20032;-67
2023/09/08 00:37:21;;;;;;;6.22;4.45;;;13.90;99.90;;;;;;4192805;28;20032;-65
2023/09/08 00:39:23;;;;;;;7.40;4.15;;;14.00;99.90;;;;;;4193946;28;20027;-67
2023/09/08 00:41:24;;;;;;;6.70;4.00;;;14.00;99.90;;;;;;4193382;28;20071;-68
2023/09/08 00:43:25;;;;;;;6.18;3.53;;;13.90;99.90;;;;;;4193056;28;20044;-68
2023/09/08 00:45:29;;;;;;;5.25;3.92;;;13.90;99.90;;;;;;4192346;28;20815;-68
2023/09/08 00:47:30;;;;;;;5.57;3.90;;;13.90;99.90;;;;;;4193233;28;20036;-67
2023/09/08 00:49:32;;;;;;;7.60;4.07;;;13.90;99.90;;;;;;4192386;28;20082;-68
2023/09/08 00:51:34;;;;;;;5.72;4.10;;;13.90;99.90;;;;;;4193894;28;20074;-64
2023/09/08 00:53:37;;;;;;;7.88;3.95;;;13.80;99.90;;;;;;4193415;28;20442;-67
2023/09/08 00:55:39;;;;;;;5.63;3.63;;;13.80;99.90;;;;;;4195957;28;20041;-66
2023/09/08 00:57:40;;;;;;;4.60;3.73;;;13.80;99.90;;;;;;4196647;28;20077;-66
2023/09/08 00:59:42;;;;;;;7.60;4.40;;;13.80;99.90;;;;;;4177997;28;20098;-62
2023/09/08 01:01:43;;;;;;;5.43;3.60;;;13.80;99.90;;;;;;4197121;28;20071;-67
2023/09/08 01:03:44;;;;;;;5.27;3.83;;;13.80;99.90;;;;;;4195671;28;20424;-67
2023/09/08 01:05:46;;;;;;;5.32;3.78;;;13.80;99.90;;;;;;4195295;28;20033;-67
2023/09/08 01:07:49;;;;;;;4.55;3.65;;;13.80;99.90;;;;;;4194466;28;20044;-67
2023/09/08 01:09:50;;;;;;;6.77;3.63;;;13.80;99.90;;;;;;4197129;28;20047;-67
2023/09/08 01:11:52;;;;;;;7.57;3.67;;;13.80;99.90;;;;;;4195283;28;20054;-66
2023/09/08 01:13:53;;;;;;;7.07;4.30;;;13.80;99.90;;;;;;4195935;28;20041;-68
2023/09/08 01:15:54;;;;;;;45.90;9.13;;;13.80;99.90;;;;;;4196101;28;20446;-65
2023/09/08 01:17:55;;;;;;;19.20;4.90;;;13.80;99.90;;;;;;4196747;28;20093;-67
2023/09/08 01:20:01;;;;;;;12.20;4.30;;;13.80;99.90;;;;;;4195687;28;20048;-66
2023/09/08 01:22:29;;;;;;;13.57;4.57;;;13.70;99.90;;;;;;4196474;28;20036;-67
2023/09/08 01:24:56;;;;;;;8.85;4.55;;;13.70;99.90;;;;;;4195075;28;20454;-66
2023/09/08 01:26:57;;;;;;;13.43;5.03;;;13.70;99.90;;;;;;4196537;28;20090;-67
2023/09/08 01:28:59;;;;;;;8.38;4.28;;;13.60;99.90;;;;;;4195161;28;20071;-67
2023/09/08 01:31:01;;;;;;;5.03;3.78;;;13.60;99.90;;;;;;4196772;28;20021;-67
2023/09/08 01:33:02;;;;;;;8.80;4.37;;;13.60;99.90;;;;;;4195725;28;20063;-66
2023/09/08 01:35:04;;;;;;;5.43;4.07;;;13.60;99.90;;;;;;4195308;28;20040;-68
2023/09/08 01:37:06;;;;;;;12.95;4.20;;;13.50;99.90;;;;;;4195431;28;20048;-68
2023/09/08 01:39:08;;;;;;;8.77;4.47;;;13.50;99.90;;;;;;4177185;28;20037;-63
2023/09/08 01:41:09;;;;;;;6.07;3.47;;;13.40;99.90;;;;;;4196429;28;20358;-65
2023/09/08 01:43:10;;;;;;;10.47;4.00;;;13.40;99.90;;;;;;4193880;28;20877;-67
2023/09/08 01:45:11;;;;;;;6.57;4.27;;;13.40;99.90;;;;;;4195434;28;20091;-67
2023/09/08 01:47:12;;;;;;;7.40;4.60;;;13.40;99.90;;;;;;4195226;28;20033;-63
2023/09/08 01:49:13;;;;;;;5.70;4.00;;;13.40;99.90;;;;;;4196277;28;20028;-68
2023/09/08 01:51:14;;;;;;;5.03;3.90;;;13.40;99.90;;;;;;4161367;28;20037;-66
2023/09/08 01:53:16;;;;;;;4.43;3.27;;;13.40;99.90;;;;;;4193528;28;20029;-65
2023/09/08 01:55:17;;;;;;;7.53;3.87;;;13.40;99.90;;;;;;4194499;28;20075;-67
2023/09/08 01:57:19;;;;;;;6.27;3.83;;;13.30;99.90;;;;;;4195762;28;20455;-68
2023/09/08 01:59:20;;;;;;;8.50;4.10;;;13.40;99.90;;;;;;4194934;28;20040;-68
2023/09/08 02:01:21;;;;;;;7.27;3.80;;;13.40;99.90;;;;;;4195993;28;20086;-68
2023/09/08 02:03:22;;;;;;;8.37;4.07;;;13.40;99.90;;;;;;4194631;28;20049;-67
2023/09/08 02:05:25;;;;;;;6.20;4.03;;;13.30;99.90;;;;;;4194662;28;20118;-67
2023/09/08 02:07:26;;;;;;;8.00;3.90;;;13.30;99.90;;;;;;4194432;28;20048;-67
2023/09/08 02:09:35;;;;;;;5.13;3.10;;;13.30;99.90;;;;;;4194847;28;20086;-68
2023/09/08 02:11:36;;;;;;;6.40;4.23;;;13.30;99.90;;;;;;4196086;28;20044;-65
2023/09/08 02:13:38;;;;;;;4.97;3.50;;;13.30;99.90;;;;;;4195575;28;20032;-65
2023/09/08 02:15:39;;;;;;;5.97;3.30;;;13.30;99.90;;;;;;4195702;28;20029;-67
2023/09/08 02:17:40;;;;;;;6.47;3.70;;;13.30;99.90;;;;;;4195001;28;20082;-67
2023/09/08 02:19:41;;;;;;;7.93;3.77;;;13.30;99.90;;;;;;4195943;28;20098;-67
2023/09/08 02:21:42;;;;;;;7.60;3.70;;;13.40;99.90;;;;;;4195465;28;20020;-67
2023/09/08 02:23:44;;;;;;;5.67;3.90;;;13.40;99.90;;;;;;4196414;28;20098;-67
2023/09/08 02:25:45;;;;;;;6.37;3.47;;;13.40;99.90;;;;;;4195235;28;20082;-67
2023/09/08 02:27:46;;;;;;;6.53;3.70;;;13.40;99.90;;;;;;4195923;28;20074;-66
2023/09/08 02:29:47;;;;;;;6.10;3.57;;;13.40;99.90;;;;;;4194221;28;20525;-66
2023/09/08 02:31:48;;;;;;;7.67;3.97;;;13.40;99.90;;;;;;4194450;28;20093;-65
2023/09/08 02:33:49;;;;;;;4.90;3.43;;;13.30;99.90;;;;;;4194367;28;20166;-67
2023/09/08 02:35:51;;;;;;;5.70;3.50;;;13.30;99.90;;;;;;4195532;28;20024;-67
2023/09/08 02:37:52;;;;;;;7.87;3.77;;;13.30;99.90;;;;;;4191748;28;20484;-66
2023/09/08 02:39:53;;;;;;;6.10;3.77;;;13.30;99.90;;;;;;4194905;28;20549;-66
2023/09/08 02:41:54;;;;;;;10.53;3.27;;;13.30;99.90;;;;;;4195188;28;20082;-66
2023/09/08 02:43:56;;;;;;;5.50;3.40;;;13.30;99.90;;;;;;4194005;28;20048;-65
2023/09/08 02:45:57;;;;;;;8.20;4.27;;;13.20;99.90;;;;;;4194337;28;20044;-62
2023/09/08 02:47:58;;;;;;;8.10;3.73;;;13.20;99.90;;;;;;4194192;28;20098;-64
2023/09/08 02:49:59;;;;;;;8.60;4.00;;;13.20;99.90;;;;;;4195364;28;20138;-64
2023/09/08 02:52:00;;;;;;;8.93;3.87;;;13.20;99.90;;;;;;4194397;28;20054;-65
2023/09/08 02:54:02;;;;;;;8.53;3.63;;;13.20;99.90;;;;;;4194791;28;20455;-66
2023/09/08 02:56:05;;;;;;;11.33;4.30;;;13.20;99.90;;;;;;4194108;28;20028;-66
2023/09/08 02:58:06;;;;;;;6.00;3.83;;;13.10;99.90;;;;;;4194554;28;20495;-65
2023/09/08 03:00:08;;;;;;;5.13;3.30;;;13.10;99.90;;;;;;4193193;28;20387;-66
2023/09/08 03:02:09;;;;;;;6.43;4.20;;;13.10;99.90;;;;;;4194779;28;20661;-67
2023/09/08 03:04:10;;;;;;;8.53;3.97;;;13.10;99.90;;;;;;4194167;28;20036;-65
2023/09/08 03:06:13;;;;;;;6.63;4.40;;;13.00;99.90;;;;;;4195056;28;20029;-64
2023/09/08 03:08:14;;;;;;;11.27;4.50;;;13.00;99.90;;;;;;4194048;28;20082;-65
2023/09/08 03:10:15;;;;;;;7.80;4.30;;;12.90;99.90;;;;;;4194736;28;20096;-67
2023/09/08 03:12:17;;;;;;;6.90;4.90;;;12.80;99.90;;;;;;4193014;28;20044;-65
2023/09/08 03:14:18;;;;;;;8.70;4.60;;;12.80;99.90;;;;;;4194040;28;20049;-66
2023/09/08 03:16:19;;;;;;;5.97;3.80;;;12.80;99.90;;;;;;4194741;28;20484;-61
2023/09/08 03:18:20;;;;;;;8.37;4.40;;;12.90;99.90;;;;;;4192625;28;20533;-67
2023/09/08 03:20:21;;;;;;;9.37;3.73;;;12.90;99.90;;;;;;4194494;28;20044;-66
2023/09/08 03:22:24;;;;;;;10.43;4.53;;;12.90;99.90;;;;;;4193617;28;20424;-61
2023/09/08 03:24:25;;;;;;;8.23;3.70;;;12.90;99.90;;;;;;4194948;28;20028;-65
2023/09/08 03:26:26;;;;;;;6.97;3.90;;;12.90;99.90;;;;;;4193756;28;20062;-66
2023/09/08 03:28:27;;;;;;;10.87;4.47;;;12.90;99.90;;;;;;4193760;28;20082;-66
2023/09/08 03:30:29;;;;;;;6.97;4.20;;;12.90;99.90;;;;;;4192608;28;20446;-67
2023/09/08 03:32:30;;;;;;;6.43;3.93;;;12.90;99.90;;;;;;4193394;28;20102;-63
2023/09/08 03:34:31;;;;;;;7.13;4.30;;;12.90;99.90;;;;;;4190266;28;20056;-65
2023/09/08 03:36:35;;;;;;;9.63;3.97;;;12.90;99.90;;;;;;4194733;28;20090;-67
2023/09/08 03:38:37;;;;;;;5.90;4.00;;;12.90;99.90;;;;;;4193080;28;20106;-65
2023/09/08 03:40:38;;;;;;;6.77;3.73;;;12.90;99.90;;;;;;4193989;28;20020;-65
2023/09/08 03:42:41;;;;;;;5.50;3.90;;;12.90;99.90;;;;;;4194050;28;20499;-64
2023/09/08 03:44:43;;;;;;;6.67;3.90;;;12.90;99.90;;;;;;4194274;28;20024;-66
2023/09/08 03:46:45;;;;;;;7.93;4.13;;;12.90;99.90;;;;;;4194213;28;20456;-66
2023/09/08 03:48:46;;;;;;;12.50;4.10;;;12.90;99.90;;;;;;4192989;28;20045;-66
2023/09/08 03:50:47;;;;;;;7.67;3.60;;;13.00;99.90;;;;;;4194623;28;20431;-66
2023/09/08 03:52:48;;;;;;;6.80;3.93;;;12.90;99.90;;;;;;4193926;28;20461;-66
2023/09/08 03:54:49;;;;;;;8.43;3.73;;;13.00;99.90;;;;;;4194467;28;20033;-66
2023/09/08 03:56:50;;;;;;;7.03;4.03;;;13.00;99.90;;;;;;4192197;28;20040;-66
2023/09/08 03:58:52;;;;;;;8.33;3.83;;;13.00;99.90;;;;;;4193566;28;20044;-66
2023/09/08 04:00:53;;;;;;;7.83;4.03;;;13.00;99.90;;;;;;4184398;28;20087;-67
2023/09/08 04:02:54;;;;;;;10.87;3.93;;;13.00;99.90;;;;;;4178772;28;20052;-63
2023/09/08 04:04:55;;;;;;;8.10;4.60;;;13.00;99.90;;;;;;4193394;28;20090;-66
2023/09/08 04:06:57;;;;;;;5.87;3.90;;;13.00;99.90;;;;;;4194457;28;20079;-67
2023/09/08 04:08:59;;;;;;;9.37;4.07;;;13.00;99.90;;;;;;4193435;28;20025;-64
2023/09/08 04:11:00;;;;;;;9.03;3.90;;;13.00;99.90;;;;;;4194187;28;20078;-68
2023/09/08 04:13:01;;;;;;;6.23;3.63;;;13.00;99.90;;;;;;4193632;28;20078;-63
2023/09/08 04:15:02;;;;;;;6.07;4.03;;;13.10;99.90;;;;;;4192576;28;20090;-64
2023/09/08 04:17:03;;;;;;;6.30;3.87;;;13.20;99.90;;;;;;4192481;28;20066;-67
2023/09/08 04:19:04;;;;;;;6.60;4.17;;;13.30;99.90;;;;;;4191648;28;20079;-64
2023/09/08 04:21:08;;;;;;;12.83;4.33;;;13.40;99.90;;;;;;4193711;28;20533;-66
2023/09/08 04:23:09;;;;;;;8.90;4.43;;;13.60;99.90;;;;;;4193636;28;20028;-65
2023/09/08 04:25:11;;;;;;;10.13;4.50;;;13.80;99.90;;;;;;4193541;28;20399;-64
2023/09/08 04:27:12;;;;;;;10.83;4.53;;;13.90;99.90;;;;;;4192609;28;20082;-61
2023/09/08 04:29:13;;;;;;;8.83;5.40;;;14.10;99.90;;;;;;4193320;28;20029;-66
2023/09/08 04:31:14;;;;;;;12.77;4.53;;;14.30;99.90;;;;;;4192900;28;20025;-64
2023/09/08 04:33:15;;;;;;;10.73;4.57;;;14.50;99.90;;;;;;4176390;28;20037;-64
2023/09/08 04:35:16;;;;;;;11.63;4.50;;;14.70;99.90;;;;;;4188842;28;20044;-62
2023/09/08 04:37:18;;;;;;;12.02;4.63;;;14.90;99.90;;;;;;4194275;28;20049;-66
2023/09/08 04:39:19;;;;;;;10.63;5.05;;;15.10;99.90;;;;;;4192618;28;20482;-67
2023/09/08 04:41:20;;;;;;;9.90;4.68;;;15.30;99.90;;;;;;4176289;28;20029;-67
2023/09/08 04:43:21;;;;;;;6.25;3.97;;;15.50;99.90;;;;;;4192103;28;20041;-62
2023/09/08 04:45:22;;;;;;;8.38;4.20;;;15.70;99.90;;;;;;4193509;28;20029;-63
2023/09/08 04:47:23;;;;;;;6.35;3.67;;;16.10;99.90;;;;;;4192341;28;20546;-60
2023/09/08 04:49:24;;;;;;;10.98;4.45;;;16.40;99.90;;;;;;4192953;28;20086;-60
2023/09/08 04:51:25;;;;;;;6.90;3.67;;;16.70;99.90;;;;;;4193066;28;20041;-58
2023/09/08 04:53:26;;;;;;;7.38;4.75;;;17.20;99.90;;;;;;4193399;28;20079;-61
2023/09/08 04:55:28;;;;;;;6.68;4.32;;;17.60;99.90;;;;;;4194176;28;20154;-60
2023/09/08 04:57:29;;;;;;;8.70;4.10;;;17.90;99.90;;;;;;4191954;28;20048;-61
2023/09/08 04:59:31;;;;;;;11.50;4.13;;;18.10;99.90;;;;;;4193139;28;20396;-61
2023/09/08 05:01:32;;;;;;;11.93;6.63;;;18.50;99.90;;;;;;4192232;28;20411;-59
2023/09/08 05:03:33;;;;;;;5.47;3.55;;;18.80;99.90;;;;;;4193688;28;20054;-60
2023/09/08 05:05:35;;;;;;;10.35;3.97;;;19.10;99.90;;;;;;4193063;28;20037;-62
2023/09/08 05:07:36;;;;;;;7.90;3.78;;;19.40;99.90;;;;;;4193545;28;20059;-61
2023/09/08 05:09:37;;;;;;;4.85;3.53;;;19.90;99.90;;;;;;4193150;28;20078;-64
2023/09/08 05:11:38;;;;;;;9.00;4.00;;;20.30;99.90;;;;;;4176190;28;20083;-62
2023/09/08 05:13:39;;;;;;;10.63;3.75;;;20.20;99.90;;;;;;4192736;28;20078;-60
2023/09/08 05:15:42;;;;;;;7.55;3.95;;;20.20;99.90;;;;;;4193447;28;20037;-63
2023/09/08 05:17:44;;;;;;;8.77;3.55;;;20.30;99.90;;;;;;4192931;28;20535;-60
2023/09/08 05:19:45;;;;;;;12.05;3.58;;;20.40;99.90;;;;;;4193167;28;20033;-66
2023/09/08 05:21:46;;;;;;;6.60;3.88;;;20.60;99.90;;;;;;4193151;28;20082;-61
2023/09/08 05:23:48;;;;;;;7.15;3.88;;;21.00;99.90;;;;;;4193365;28;20036;-61
2023/09/08 05:25:49;;;;;;;7.50;3.78;;;21.50;99.90;;;;;;4193926;28;20078;-61
2023/09/08 05:27:50;;;;;;;7.38;3.85;;;21.70;99.90;;;;;;4192606;28;20106;-61
2023/09/08 05:29:51;;;;;;;6.82;3.30;;;21.70;99.90;;;;;;4175707;28;20037;-61
2023/09/08 05:31:52;;;;;;;6.15;3.88;;;21.60;99.90;;;;;;4192830;28;20029;-60
2023/09/08 05:33:53;;;;;;;8.05;3.47;;;21.70;99.90;;;;;;4192976;28;20037;-59
2023/09/08 05:35:54;;;;;;;6.82;3.85;;;21.70;99.90;;;;;;4191790;28;20458;-59
2023/09/08 05:37:55;;;;;;;5.50;3.05;;;22.00;99.90;;;;;;4193807;28;20099;-61
2023/09/08 05:39:57;;;;;;;5.65;3.53;;;22.00;99.90;;;;;;4191945;28;20033;-60
2023/09/08 05:41:58;;;;;;;4.88;3.72;;;22.00;99.90;;;;;;4196481;28;20074;-60
2023/09/08 05:43:59;;;;;;;4.60;3.10;;;22.30;99.90;;;;;;4194857;28;20107;-61
2023/09/08 05:46:01;;;;;;;9.25;3.67;;;22.50;99.80;;;;;;4195195;28;20428;-61
2023/09/08 05:48:02;;;;;;;8.73;3.20;;;23.00;99.50;;;;;;4195656;28;20074;-61
2023/09/08 05:50:03;;;;;;;6.57;3.60;;;23.40;98.90;;;;;;4195384;28;20024;-59
2023/09/08 05:52:05;;;;;;;5.47;3.63;;;23.60;98.30;;;;;;4196123;28;20094;-60
2023/09/08 05:54:06;;;;;;;11.45;4.10;;;23.80;97.90;;;;;;4195603;28;20112;-60
2023/09/08 05:56:07;;;;;;;8.32;3.28;;;24.00;97.40;;;;;;4195568;28;20130;-60
2023/09/08 05:58:08;;;;;;;8.15;3.30;;;24.40;97.00;;;;;;4194149;28;20431;-60
2023/09/08 06:00:10;;;;;;;9.88;3.92;;;24.60;96.60;;;;;;4196427;28;20033;-63
2023/09/08 06:02:11;;;;;;;7.70;3.55;;;24.80;96.10;;;;;;4194898;28;20070;-59
2023/09/08 06:04:12;;;;;;;10.88;4.32;;;24.80;95.50;;;;;;4195308;28;20101;-60
2023/09/08 06:06:13;;;;;;;12.85;4.10;;;25.00;95.40;;;;;;4177011;28;20088;-59
2023/09/08 06:08:14;;;;;;;8.38;3.80;;;25.40;95.00;;;;;;4196411;28;20548;-60
2023/09/08 06:10:16;;;;;;;13.50;4.43;;;25.80;94.60;;;;;;4194580;28;20282;-60
2023/09/08 06:12:17;;;;;;;5.70;3.40;;;26.10;94.00;;;;;;4196067;28;20033;-62
2023/09/08 06:14:18;;;;;;;4.75;3.45;;;26.20;93.50;;;;;;4195123;28;20461;-60
2023/09/08 06:16:19;;;;;;;9.57;3.30;;;26.30;93.20;;;;;;4195679;28;20110;-60
2023/09/08 06:18:20;;;;;;;5.53;3.17;;;26.10;93.00;;;;;;4194385;28;20033;-61
2023/09/08 06:20:22;;;;;;;4.40;3.00;;;26.00;92.80;;;;;;4194840;28;20086;-66
2023/09/08 06:22:23;;;;;;;6.22;3.95;;;26.00;92.90;;;;;;4195741;28;20028;-61
2023/09/08 06:24:24;;;;;;;8.77;3.63;;;25.80;92.90;;;;;;4194433;28;20036;-61
2023/09/08 06:26:25;;;;;;;4.95;3.42;;;25.90;92.90;;;;;;4195480;28;20044;-61
2023/09/08 06:28:27;;;;;;;7.88;3.47;;;25.70;92.50;;;;;;4194968;28;20028;-63
2023/09/08 06:30:28;;;;;;;15.70;4.53;;;25.60;92.60;;;;;;4194680;28;20032;-63
2023/09/08 06:32:30;;;;;;;10.70;4.20;;;25.40;92.60;;;;;;4193927;28;20102;-68
2023/09/08 06:34:31;;;;;;;12.38;4.78;;;25.30;92.80;;;;;;4195653;28;20461;-65
2023/09/08 06:36:32;;;;;;;7.88;3.60;;;25.20;92.80;;;;;;4194575;28;20434;-68
2023/09/08 06:38:34;;;;;;;11.75;4.38;;;25.20;92.80;;;;;;4195762;28;20028;-67
2023/09/08 06:40:35;;;;;;;10.07;4.35;;;25.10;92.60;;;;;;4192983;28;20048;-68
2023/09/08 06:42:36;;;;;;;10.23;4.13;;;24.80;92.70;;;;;;4194520;28;20106;-61
2023/09/08 06:44:38;;;;;;;7.60;4.40;;;25.00;92.70;;;;;;4194415;28;20373;-63
2023/09/08 06:46:39;;;;;;;7.40;4.20;;;24.80;92.70;;;;;;4193732;28;20044;-61
2023/09/08 06:48:40;;;;;;;5.25;3.78;;;24.80;92.80;;;;;;4194334;28;20094;-62
2023/09/08 06:50:42;;;;;;;11.25;3.67;;;24.60;93.10;;;;;;4193792;28;20538;-62
2023/09/08 06:52:44;;;;;;;10.63;3.78;;;24.30;93.30;;;;;;4193594;28;20040;-65
2023/09/08 06:54:48;;;;;;;13.02;4.53;;;24.10;93.70;;;;;;4194555;28;20025;-62
2023/09/08 06:56:49;;;;;;;10.07;4.25;;;24.00;93.80;;;;;;4195451;28;20040;-67
2023/09/08 06:58:50;;;;;;;18.30;4.85;;;23.80;94.00;;;;;;4193698;28;20451;-62
2023/09/08 07:00:54;;;;;;;9.90;4.90;;;23.70;94.30;;;;;;4195619;28;20078;-62
2023/09/08 07:02:55;;;;;;;10.20;4.75;;;23.60;94.20;;;;;;4194193;28;20086;-68
2023/09/08 07:04:56;;;;;;;6.38;3.85;;;23.10;94.50;;;;;;4194332;28;20495;-61
2023/09/08 07:06:57;;;;;;;8.35;4.35;;;22.70;95.20;;;;;;4194264;28;20020;-68
2023/09/08 07:08:58;;;;;;;5.15;4.05;;;22.80;95.30;;;;;;4195190;28;20082;-66
2023/09/08 07:10:59;;;;;;;8.00;4.05;;;22.60;95.50;;;;;;4194095;28;20032;-66
2023/09/08 07:13:01;;;;;;;8.70;4.07;;;22.70;95.70;;;;;;4194023;28;20107;-65
2023/09/08 07:15:02;;;;;;;8.88;4.28;;;22.50;95.70;;;;;;4193890;28;20538;-62
2023/09/08 07:17:03;;;;;;;8.07;3.70;;;22.40;95.80;;;;;;4193941;28;20040;-64
2023/09/08 07:19:05;;;;;;;4.82;3.47;;;22.30;96.00;;;;;;4193515;28;20455;-61
2023/09/08 07:21:06;;;;;;;8.48;4.43;;;22.40;96.20;;;;;;4194098;28;20528;-66
2023/09/08 07:23:07;;;;;;;6.63;3.55;;;22.30;96.50;;;;;;4193613;28;20045;-66
2023/09/08 07:25:09;;;;;;;11.25;4.50;;;22.00;96.60;;;;;;4194148;28;20066;-65
2023/09/08 07:27:14;;;;;;;12.30;4.30;;;21.90;97.00;;;;;;4194626;28;20499;-65
2023/09/08 07:29:15;;;;;;;7.05;3.72;;;22.10;96.90;;;;;;4193397;28;20032;-67
2023/09/08 07:31:16;;;;;;;6.30;3.85;;;22.20;96.90;;;;;;4193768;28;20086;-64
2023/09/08 07:33:19;;;;;;;8.32;3.47;;;22.00;96.90;;;;;;4193451;28;20020;-67
2023/09/08 07:35:20;;;;;;;8.43;2.97;;;22.10;97.10;;;;;;4194340;28;20036;-63
2023/09/08 07:37:22;;;;;;;7.30;3.65;;;22.20;97.10;;;;;;4193029;28;20028;-61
2023/09/08 07:39:23;;;;;;;7.72;3.60;;;22.20;97.10;;;;;;4193961;28;20029;-62
2023/09/08 07:41:24;;;;;;;8.07;3.38;;;21.90;97.40;;;;;;4192963;28;20557;-63
2023/09/08 07:43:26;;;;;;;6.53;3.15;;;22.00;97.50;;;;;;4193383;28;20091;-66
2023/09/08 07:45:27;;;;;;;6.43;3.35;;;22.10;97.50;;;;;;4192450;28;20480;-62
2023/09/08 07:47:29;;;;;;;8.18;3.58;;;22.00;97.60;;;;;;4193990;28;20036;-68
2023/09/08 07:49:33;;;;;;;8.80;3.60;;;21.90;97.90;;;;;;4192285;28;20036;-67
2023/09/08 07:51:34;;;;;;;9.70;3.33;;;21.80;98.20;;;;;;4193839;28;20021;-67
2023/09/08 07:53:35;;;;;;;7.07;3.85;;;21.80;98.10;;;;;;4194007;28;20024;-67
2023/09/08 07:55:36;;;;;;;7.85;3.58;;;22.00;98.20;;;;;;4193473;28;20109;-64
2023/09/08 07:57:37;;;;;;;8.90;4.63;;;22.00;98.30;;;;;;4193919;28;20483;-63
2023/09/08 07:59:39;;;;;;;6.93;4.00;;;22.20;98.30;;;;;;4193048;28;20032;-68
2023/09/08 08:01:40;;;;;;;8.20;3.58;;;22.30;98.30;;;;;;4193389;28;20037;-68
2023/09/08 08:03:41;;;;;;;9.82;3.90;;;22.60;98.10;;;;;;4192296;28;20048;-65
2023/09/08 08:05:42;;;;;;;8.10;3.55;;;22.70;97.80;;;;;;4194464;28;20070;-68
2023/09/08 08:07:44;;;;;;;8.90;3.60;;;22.80;97.60;;;;;;4191917;28;20044;-63
2023/09/08 08:09:45;;;;;;;5.72;3.42;;;22.90;97.50;;;;;;4194214;28;20032;-64
2023/09/08 08:11:46;;;;;;;6.38;3.70;;;22.80;97.50;;;;;;4193161;28;20028;-64
2023/09/08 08:13:47;;;;;;;7.53;3.47;;;23.00;97.50;;;;;;4194198;28;20028;-66
2023/09/08 08:15:49;;;;;;;6.35;3.85;;;22.90;97.50;;;;;;4192299;28;20158;-65
2023/09/08 08:17:50;;;;;;;6.97;3.47;;;23.00;97.60;;;;;;4192907;28;20373;-65
2023/09/08 08:19:52;;;;;;;7.63;3.80;;;23.10;97.40;;;;;;4192971;28;20502;-68
2023/09/08 08:21:53;;;;;;;7.00;3.05;;;23.20;97.20;;;;;;4192917;28;20041;-68
2023/09/08 08:23:54;;;;;;;8.23;3.13;;;23.00;96.80;;;;;;4193228;28;20049;-68
2023/09/08 08:25:55;;;;;;;9.68;4.18;;;23.10;97.10;;;;;;4193837;28;20468;-66
2023/09/08 08:27:58;;;;;;;8.07;3.15;;;23.00;97.10;;;;;;4193998;28;20098;-67
2023/09/08 08:30:00;;;;;;;6.95;2.90;;;23.00;97.20;;;;;;4192779;28;20575;-66
2023/09/08 08:32:02;;;;;;;8.23;2.97;;;23.10;97.20;;;;;;4175519;28;20063;-68
2023/09/08 08:34:03;;;;;;;7.28;3.40;;;23.30;97.00;;;;;;4192265;28;20090;-66
2023/09/08 08:36:04;;;;;;;6.80;3.03;;;23.40;97.00;;;;;;4193966;28;20066;-68
2023/09/08 08:38:06;;;;;;;5.97;2.67;;;23.40;96.90;;;;;;4192975;28;20345;-68
2023/09/08 08:40:10;;;;;;;3.67;3.20;;;23.40;96.90;;;;;;4194216;28;21685;-66
2023/09/08 08:42:12;;;;;;;3.72;2.90;;;23.40;96.80;;;;;;4174830;28;20025;-66
2023/09/08 08:44:15;;;;;;;6.35;3.28;;;23.30;96.60;;;;;;4192655;28;20097;-67
2023/09/08 08:46:17;;;;;;;4.70;3.33;;;23.50;96.70;;;;;;4192714;28;20020;-62
2023/09/08 08:48:20;;;;;;;5.53;3.38;;;23.80;96.70;;;;;;4194158;28;20032;-64
2023/09/08 08:50:22;;;;;;;4.65;3.22;;;23.80;96.70;;;;;;4192467;28;20059;-66
2023/09/08 08:52:23;;;;;;;6.55;3.40;;;23.80;96.80;;;;;;4193585;28;20079;-66
2023/09/08 08:54:24;;;;;;;7.07;3.08;;;23.80;96.90;;;;;;4192523;28;20062;-67
2023/09/08 08:56:26;;;;;;;6.63;2.90;;;24.00;96.90;;;;;;4193495;28;20070;-66
2023/09/08 08:58:28;;;;;;;4.15;2.88;;;24.10;96.80;;;;;;4193472;28;20025;-68
2023/09/08 09:00:30;;;;;;;4.70;2.25;;;24.10;96.80;;;;;;4192351;28;20033;-68
2023/09/08 09:02:31;;;;;;;3.08;2.65;;;24.20;96.60;;;;;;4193015;28;20110;-67
2023/09/08 09:04:33;;;;;;;6.43;2.90;;;24.20;96.50;;;;;;4174094;28;20175;-67
2023/09/08 09:06:35;;;;;;;4.93;2.47;;;24.00;96.60;;;;;;4193165;28;20480;-62
2023/09/08 09:08:38;;;;;;;4.43;2.78;;;24.00;96.60;;;;;;4192829;28;20032;-62
2023/09/08 09:10:39;;;;;;;5.18;2.78;;;24.10;96.70;;;;;;4193319;28;20447;-68
2023/09/08 09:12:40;;;;;;;5.60;3.05;;;23.90;96.80;;;;;;4192634;28;20359;-66
2023/09/08 09:14:47;;;;;;;3.97;2.95;;;23.90;96.90;;;;;;4192826;28;20029;-65
2023/09/08 09:16:48;;;;;;;5.85;2.42;;;24.00;96.80;;;;;;4194819;28;20141;-66
2023/09/08 09:18:58;;;;;;;5.10;2.75;;;24.20;96.70;;;;;;4196998;28;20054;-66
2023/09/08 09:21:01;;;;;;;3.70;2.38;;;24.20;96.60;;;;;;4195201;28;20472;-67
2023/09/08 09:23:03;;;;;;;3.33;2.33;;;24.20;96.40;;;;;;4196168;28;20059;-66
2023/09/08 09:25:07;;;;;;;3.47;2.10;;;24.30;96.40;;;;;;4177706;28;20437;-65
2023/09/08 09:27:09;;;;;;;6.50;2.22;;;24.30;96.20;;;;;;4195728;28;20086;-68
2023/09/08 09:29:14;;;;;;;2.42;2.17;;;24.20;96.20;;;;;;4195773;28;20024;-65
2023/09/08 09:31:15;;;;;;;4.40;1.95;;;24.30;96.10;;;;;;4196152;28;20040;-67
2023/09/08 09:33:17;;;;;;;2.72;1.70;;;24.40;95.80;;;;;;4195952;28;20086;-68
2023/09/08 09:35:18;;;;;;;3.42;2.10;;;24.40;95.50;;;;;;4195794;28;20070;-68
2023/09/08 09:37:19;;;;;;;8.43;5.60;;;24.60;95.40;;;;;;4196220;28;20044;-68
2023/09/08 09:39:23;;;;;;;6.38;3.00;;;24.70;95.30;;;;;;4194552;28;20044;-65
2023/09/08 09:41:24;;;;;;;2.53;2.33;;;24.90;95.30;;;;;;4196344;28;20518;-68
2023/09/08 09:43:29;;;;;;;3.92;2.00;;;25.00;95.10;;;;;;4194719;28;20143;-68
2023/09/08 09:45:31;;;;;;;5.00;1.92;;;25.10;94.60;;;;;;4195961;28;20044;-68
2023/09/08 09:47:32;;;;;;;3.92;2.65;;;24.90;94.80;;;;;;4195078;28;20028;-67
2023/09/08 09:49:42;;;;;;;6.18;2.28;;;24.90;94.80;;;;;;4196126;28;20575;-67
2023/09/08 09:51:49;;;;;;;2.97;2.13;;;25.00;94.50;;;;;;4194445;28;20066;-68
2023/09/08 09:53:50;;;;;;;3.67;1.95;;;24.80;94.40;;;;;;4195793;28;20040;-68
2023/09/08 09:55:52;;;;;;;3.40;1.95;;;24.90;94.60;;;;;;4195359;28;20106;-67
2023/09/08 09:58:03;;;;;;;2.58;1.58;;;24.90;94.50;;;;;;4195852;28;20036;-61
2023/09/08 10:00:05;;;;;;;3.10;1.90;;;24.80;94.50;;;;;;4194710;28;20480;-65
2023/09/08 10:02:15;;;;;;;3.25;2.28;;;24.90;94.60;;;;;;4195106;28;20090;-68
2023/09/08 10:04:17;;;;;;;4.28;1.92;;;25.00;94.80;;;;;;4194939;28;20488;-67
2023/09/08 10:06:20;;;;;;;2.28;1.88;;;25.20;94.50;;;;;;4195583;28;20480;-69
2023/09/08 10:08:21;;;;;;;5.93;3.10;;;25.30;94.50;;;;;;4194030;28;20041;-70
2023/09/08 10:10:24;;;;;;;3.33;2.42;;;25.30;94.40;;;;;;4196194;28;20534;-71
2023/09/08 10:12:31;;;;;;;5.32;2.28;;;25.40;94.40;;;;;;4177400;28;20040;-70
2023/09/08 10:14:40;;;;;;;2.10;1.83;;;25.60;94.30;;;;;;4192020;28;20048;-69
2023/09/08 10:16:44;;;;;;;3.05;2.25;;;25.70;94.00;;;;;;4194368;28;20052;-68
2023/09/08 10:18:49;;;;;;;3.08;1.60;;;25.50;93.70;;;;;;4194685;28;20032;-69
2023/09/08 10:20:53;;;;;;;3.17;2.33;;;25.30;93.70;;;;;;4195683;28;20070;-68
2023/09/08 10:23:15;;;;;;;6.25;2.67;;;25.20;94.00;;;;;;4195115;28;20082;-68
2023/09/08 10:25:19;;;;;;;2.97;2.00;;;25.10;93.90;;;;;;4194739;28;20174;-69
2023/09/08 10:27:22;;;;;;;4.32;2.10;;;24.90;94.00;;;;;;4194390;28;20017;-68
2023/09/08 10:29:26;;;;;;;2.47;2.17;;;24.90;94.00;;;;;;4195495;28;20415;-68
2023/09/08 10:31:29;;;;;;;2.22;2.03;;;24.90;93.90;;;;;;4194388;28;20107;-67
2023/09/08 10:33:31;;;;;;;5.28;1.88;;;24.80;93.90;;;;;;4195306;28;20032;-69